.
WxDataArchive / Data Records for 2013-05-09
2013-05-08 May 2013 2013-05-10

Data Records for Thursday, 09 May 2013

Time	Temp	Chill	HIndex	Humid	Dewpt	 Wind 	HiWind	WindDir	Rain 	Barom 
-----	----	-----	------	-----	-----	------	------	-------	-----	----- 
00:00	59.0	59.0	59.0	78	52.1	0	0	---	0.00	29.959 
00:05	58.7	58.7	58.7	79	52.2	0	0	---	0.00	29.959 
00:10	58.7	58.7	58.7	81	52.9	0	0	---	0.00	29.959 
00:15	58.6	58.6	58.6	81	52.8	0	0	---	0.00	29.958 
00:20	58.4	58.4	58.4	82	52.9	0	0	---	0.00	29.958 
00:25	58.4	58.4	58.4	82	52.9	0	0	---	0.00	29.958 
00:30	58.3	58.3	58.3	82	52.8	0	0	---	0.00	29.957 
00:35	58.1	58.1	58.1	82	52.6	0	0	---	0.00	29.957 
00:40	58.0	58.0	58.0	82	52.5	0	0	---	0.00	29.957 
00:45	57.8	57.8	57.8	82	52.3	0	0	---	0.00	29.955 
00:50	57.5	57.5	57.5	82	52.0	0	0	---	0.00	29.955 
00:55	57.3	57.3	57.3	82	51.9	0	0	---	0.00	29.955 
01:00	57.2	57.2	57.2	82	51.8	0	0	---	0.00	29.947 
01:05	56.9	56.9	56.9	83	51.8	0	0	---	0.00	29.947 
01:10	56.7	56.7	56.7	84	51.9	0	0	---	0.00	29.947 
01:15	56.9	56.9	56.9	84	52.1	0	0	---	0.00	29.944 
01:20	56.9	56.9	56.9	84	52.1	0	0	---	0.00	29.944 
01:25	56.9	56.9	56.9	84	52.1	0	0	---	0.00	29.944 
01:30	57.2	57.2	57.2	84	52.4	0	0	---	0.00	29.942 
01:35	57.8	57.8	57.8	83	52.7	0	0	---	0.00	29.942 
01:40	58.3	58.3	58.3	82	52.8	0	0	---	0.00	29.942 
01:45	58.6	58.6	58.6	81	52.8	0	0	---	0.00	29.936 
01:50	58.9	58.9	58.9	80	52.7	0	0	---	0.00	29.936 
01:55	58.9	58.9	58.9	79	52.4	0	0	---	0.00	29.936 
02:00	58.9	58.9	58.9	79	52.4	0	0	---	0.00	29.931 
02:05	58.7	58.7	58.7	79	52.2	0	0	---	0.00	29.931 
02:10	58.7	58.7	58.7	79	52.2	0	0	---	0.00	29.931 
02:15	58.7	58.7	58.7	79	52.2	0	0	---	0.00	29.929 
02:20	58.6	58.6	58.6	79	52.1	0	0	---	0.00	29.929 
02:25	58.3	58.3	58.3	79	51.8	0	0	---	0.00	29.929 
02:30	58.0	58.0	58.0	80	51.9	0	0	---	0.00	29.930 
02:35	57.6	57.6	57.6	81	51.8	0	0	---	0.00	29.930 
02:40	57.2	57.2	57.2	81	51.4	0	0	---	0.00	29.930 
02:45	57.0	57.0	57.0	82	51.6	0	0	---	0.00	29.931 
02:50	56.7	56.7	56.7	83	51.6	0	0	---	0.00	29.931 
02:55	56.6	56.6	56.6	83	51.5	0	0	---	0.00	29.931 
03:00	56.3	56.3	56.3	84	51.5	0	0	---	0.00	29.930 
03:05	56.0	56.0	56.0	84	51.2	0	0	---	0.00	29.930 
03:10	55.7	55.7	55.7	85	51.3	0	0	---	0.00	29.930 
03:15	55.6	55.6	55.6	85	51.2	0	0	---	0.00	29.923 
03:20	55.3	55.3	55.3	85	50.9	0	0	---	0.00	29.923 
03:25	55.1	55.1	55.1	86	51.0	0	0	---	0.00	29.923 
03:30	54.8	54.8	54.8	87	51.0	0	0	---	0.00	29.923 
03:35	54.7	54.7	54.7	87	50.9	0	0	---	0.00	29.923 
03:40	54.5	54.5	54.5	87	50.7	0	0	---	0.00	29.923 
03:45	54.4	54.4	54.4	87	50.6	0	0	---	0.00	29.925 
03:50	54.1	54.1	54.1	88	50.6	0	0	---	0.00	29.925 
03:55	53.9	53.9	53.9	88	50.4	0	0	---	0.00	29.925 
04:00	53.8	53.8	53.8	88	50.3	0	0	---	0.00	29.926 
04:05	53.6	53.6	53.6	88	50.1	0	0	---	0.00	29.926 
04:10	53.5	53.5	53.5	89	50.3	0	0	---	0.00	29.926 
04:15	53.3	53.3	53.3	89	50.1	0	0	---	0.00	29.929 
04:20	53.2	53.2	53.2	89	50.0	0	0	---	0.00	29.929 
04:25	53.2	53.2	53.2	89	50.0	0	0	---	0.00	29.929 
04:30	53.2	53.2	53.2	90	50.3	0	0	---	0.00	29.930 
04:35	53.5	53.5	53.5	90	50.6	0	0	---	0.00	29.930 
04:40	53.9	53.9	53.9	91	51.3	0	0	---	0.00	29.930 
04:45	54.4	54.4	54.4	91	51.8	0	0	---	0.00	29.930 
04:50	54.7	54.7	54.7	90	51.8	0	0	---	0.00	29.930 
04:55	54.8	54.8	54.8	90	51.9	0	0	---	0.00	29.930 
05:00	54.8	54.8	54.8	89	51.6	0	0	---	0.00	29.928 
05:05	55.0	55.0	55.0	88	51.5	0	0	---	0.00	29.928 
05:10	55.0	55.0	55.0	88	51.5	0	0	---	0.00	29.928 
05:15	54.8	54.8	54.8	88	51.3	0	0	---	0.00	29.931 
05:20	54.7	54.7	54.7	87	50.9	0	0	---	0.00	29.931 
05:25	54.5	54.5	54.5	87	50.7	0	0	---	0.00	29.931 
05:30	54.8	54.8	54.8	87	51.0	0	0	---	0.00	29.932 
05:35	55.0	55.0	55.0	86	50.9	0	0	---	0.00	29.932 
05:40	55.1	55.1	55.1	86	51.0	0	0	---	0.00	29.932 
05:45	55.3	55.3	55.3	86	51.2	0	0	---	0.00	29.936 
05:50	55.6	55.6	55.6	85	51.2	0	0	---	0.00	29.936 
05:55	55.7	55.7	55.7	85	51.3	0	1	45	0.00	29.936 
06:00	56.0	56.0	56.0	84	51.2	0	1	45	0.00	29.941 
06:05	56.3	56.3	56.3	84	51.5	0	1	45	0.00	29.941 
06:10	56.5	56.5	56.5	83	51.4	0	0	---	0.00	29.941 
06:15	56.3	56.3	56.3	83	51.2	0	0	---	0.00	29.945 
06:20	56.2	56.2	56.2	83	51.1	0	0	---	0.00	29.945 
06:25	56.0	56.0	56.0	83	50.9	0	0	---	0.00	29.945 
06:30	55.9	55.9	55.9	83	50.8	0	0	---	0.00	29.948 
06:35	55.9	55.9	55.9	84	51.1	0	0	---	0.00	29.948 
06:40	56.0	56.0	56.0	84	51.2	0	0	---	0.00	29.948 
06:45	55.9	55.9	55.9	84	51.1	0	0	---	0.00	29.949 
06:50	55.7	55.7	55.7	83	50.6	0	0	---	0.00	29.949 
06:55	55.4	55.4	55.4	84	50.6	0	0	---	0.00	29.949 
07:00	55.3	55.3	55.3	84	50.5	0	0	---	0.00	29.952 
07:05	55.0	55.0	55.0	85	50.6	0	0	---	0.00	29.952 
07:10	54.7	54.7	54.7	86	50.6	0	0	---	0.00	29.952 
07:15	54.7	54.7	54.7	86	50.6	0	0	---	0.00	29.953 
07:20	54.5	54.5	54.5	86	50.4	0	0	---	0.00	29.953 
07:25	54.8	54.8	54.8	87	51.0	0	0	---	0.00	29.953 
07:30	55.1	55.1	55.1	87	51.3	0	0	---	0.00	29.955 
07:35	55.7	55.7	55.7	87	51.9	0	0	---	0.00	29.955 
07:40	56.3	56.3	56.3	87	52.5	0	0	---	0.00	29.955 
07:45	57.0	57.0	57.0	87	53.2	0	0	---	0.00	29.957 
07:50	57.8	57.8	57.8	85	53.3	0	0	---	0.00	29.957 
07:55	58.6	58.6	58.6	84	53.8	0	1	45	0.00	29.957 
08:00	59.3	59.3	59.3	82	53.8	0	1	45	0.00	29.960 
08:05	59.9	59.9	59.9	80	53.7	0	1	45	0.00	29.960 
08:10	60.4	60.4	60.4	78	53.5	0	1	45	0.00	29.960 
08:15	61.0	61.0	61.0	77	53.7	0	1	45	0.00	29.965 
08:20	61.3	61.3	61.3	76	53.7	0	1	45	0.00	29.965 
08:25	61.8	61.8	61.8	75	53.8	1	2	45	0.00	29.965 
08:30	62.1	62.1	62.1	74	53.7	0	2	45	0.00	29.964 
08:35	62.6	62.6	62.6	74	54.2	0	1	45	0.00	29.964 
08:40	63.1	63.1	63.1	73	54.3	0	1	45	0.00	29.964 
08:45	63.4	63.4	63.4	72	54.2	1	2	45	0.00	29.965 
08:50	63.9	63.9	63.9	72	54.7	1	2	0	0.00	29.965 
08:55	64.3	64.3	64.3	71	54.7	0	2	0	0.00	29.965 
09:00	64.7	64.7	64.7	69	54.3	1	2	0	0.00	29.964 
09:05	65.2	65.2	65.2	69	54.8	0	2	0	0.00	29.964 
09:10	65.6	65.6	65.6	67	54.3	0	2	0	0.00	29.964 
09:15	66.1	66.1	66.1	68	55.2	0	1	0	0.00	29.967 
09:20	66.4	66.4	66.4	65	54.3	0	1	0	0.00	29.967 
09:25	66.8	66.8	66.8	65	54.6	0	1	0	0.00	29.967 
09:30	67.3	67.3	67.3	63	54.3	0	1	0	0.00	29.963 
09:35	67.9	67.9	67.9	63	54.8	0	1	0	0.00	29.963 
09:40	68.4	68.4	68.4	63	55.3	0	1	0	0.00	29.963 
09:45	68.9	68.9	68.9	60	54.4	0	1	0	0.00	29.962 
09:50	69.4	69.4	69.4	58	54.0	0	1	0	0.00	29.962 
09:55	70.1	70.1	70.1	59	55.1	0	1	0	0.00	29.962 
10:00	70.9	70.9	70.9	54	53.4	0	1	0	0.00	29.959 
10:05	71.1	71.1	71.1	53	53.1	0	1	0	0.00	29.959 
10:10	70.9	70.9	70.9	52	52.4	0	1	0	0.00	29.959 
10:15	70.9	70.9	70.9	52	52.4	0	1	0	0.00	29.961 
10:20	70.9	70.9	70.9	51	51.9	0	1	0	0.00	29.961 
10:25	71.3	71.3	71.3	52	52.8	0	1	0	0.00	29.961 
10:30	71.5	71.5	71.5	52	52.9	0	1	0	0.00	29.961 
10:35	72.0	72.0	72.0	52	53.4	0	0	---	0.00	29.961 
10:40	72.3	72.3	72.3	50	52.6	1	3	0	0.00	29.961 
10:45	72.5	72.5	72.5	47	51.1	0	2	0	0.00	29.963 
10:50	72.8	72.8	72.8	49	52.5	0	2	0	0.00	29.963 
10:55	73.0	73.0	73.0	47	51.6	0	1	0	0.00	29.963 
11:00	73.2	73.2	73.2	46	51.2	0	1	0	0.00	29.965 
11:05	73.3	73.3	73.3	46	51.3	0	1	0	0.00	29.965 
11:10	73.2	73.2	73.2	43	49.3	0	1	0	0.00	29.965 
11:15	73.3	73.3	73.3	42	48.8	0	2	0	0.00	29.965 
11:20	73.3	73.3	73.3	40	47.5	0	2	0	0.00	29.965 
11:25	73.5	73.5	73.5	41	48.3	0	2	0	0.00	29.965 
11:30	73.7	73.7	73.7	43	49.8	0	3	0	0.00	29.973 
11:35	74.0	74.0	74.0	44	50.7	0	1	90	0.00	29.973 
11:40	74.7	74.7	74.7	44	51.3	0	2	90	0.00	29.973 
11:45	75.4	75.4	77.6	41	50.0	0	2	90	0.00	29.973 
11:50	75.4	75.4	77.4	35	45.8	0	2	90	0.00	29.973 
11:55	75.3	75.3	77.4	36	46.5	1	3	338	0.00	29.973 
12:00	75.3	75.3	77.4	36	46.5	0	1	338	0.00	29.976 
12:05	75.4	75.4	77.4	36	46.6	0	1	338	0.00	29.976 
12:10	75.8	75.8	77.7	38	48.4	0	1	338	0.00	29.976 
12:15	76.1	76.1	77.8	38	48.6	0	2	338	0.00	29.976 
12:20	75.8	75.8	77.4	33	44.6	0	2	338	0.00	29.976 
12:25	76.0	76.0	77.6	36	47.1	0	2	338	0.00	29.976 
12:30	76.0	76.0	77.5	33	44.8	0	2	338	0.00	29.977 
12:35	76.1	76.1	77.3	30	42.4	1	3	338	0.00	29.977 
12:40	76.8	76.8	77.9	35	47.1	0	2	338	0.00	29.977 
12:45	77.0	77.0	77.7	31	44.0	0	2	338	0.00	29.974 
12:50	77.4	77.4	78.2	36	48.3	1	4	338	0.00	29.974 
12:55	77.9	77.9	78.5	37	49.5	1	3	90	0.00	29.974 
13:00	78.1	78.1	78.4	33	46.6	0	2	90	0.00	29.970 
13:05	78.3	78.3	78.5	33	46.8	0	2	90	0.00	29.970 
13:10	78.6	78.6	78.3	28	42.7	1	3	90	0.00	29.970 
13:15	78.6	78.6	78.5	31	45.4	1	3	90	0.00	29.964 
13:20	78.8	78.8	78.5	30	44.7	1	3	90	0.00	29.964 
13:25	78.8	78.8	78.4	28	42.9	1	4	90	0.00	29.964 
13:30	78.8	78.8	78.6	31	45.6	0	2	315	0.00	29.959 
13:35	79.0	79.0	78.7	31	45.8	0	2	270	0.00	29.959 
13:40	79.2	79.2	78.8	31	45.9	1	3	315	0.00	29.959 
13:45	79.4	79.4	78.9	31	46.1	0	2	315	0.00	29.952 
13:50	79.4	79.4	78.7	28	43.4	0	1	315	0.00	29.952 
13:55	79.6	79.6	79.0	31	46.3	1	4	315	0.00	29.952 
14:00	79.4	79.4	78.9	31	46.1	1	3	270	0.00	29.943 
14:05	79.8	79.8	79.1	30	45.6	0	2	292	0.00	29.943 
14:10	79.8	79.8	79.0	29	44.7	1	2	292	0.00	29.943 
14:15	79.4	79.4	78.8	30	45.2	1	2	292	0.00	29.944 
14:20	78.8	78.8	78.6	31	45.6	1	3	292	0.00	29.944 
14:25	79.0	79.0	79.0	35	49.0	0	2	292	0.00	29.944 
14:30	79.0	79.0	78.7	31	45.8	0	2	292	0.00	29.946 
14:35	79.0	79.0	78.9	34	48.2	0	1	292	0.00	29.946 
14:40	79.2	79.2	78.9	32	46.8	0	2	292	0.00	29.946 
14:45	79.6	79.6	79.2	33	47.9	1	3	112	0.00	29.939 
14:50	79.6	79.6	79.2	34	48.7	1	3	112	0.00	29.939 
14:55	79.2	79.2	79.1	35	49.2	0	3	112	0.00	29.939 
15:00	78.8	78.8	78.6	32	46.4	0	2	112	0.00	29.939 
15:05	78.8	78.8	78.8	34	48.0	0	3	270	0.00	29.939 
15:10	79.0	79.0	78.8	32	46.6	0	2	270	0.00	29.939 
15:15	79.2	79.2	78.7	30	45.1	1	3	270	0.00	29.935 
15:20	79.4	79.4	78.9	31	46.1	0	1	270	0.00	29.935 
15:25	79.9	79.9	79.2	31	46.5	1	3	270	0.00	29.935 
15:30	79.8	79.8	79.1	30	45.6	1	3	270	0.00	29.930 
15:35	79.4	79.4	78.8	29	44.3	1	3	270	0.00	29.930 
15:40	79.2	79.2	78.9	32	46.8	0	3	270	0.00	29.930 
15:45	79.0	79.0	78.7	31	45.8	0	2	270	0.00	29.929 
15:50	79.0	79.0	78.7	31	45.8	0	1	270	0.00	29.929 
15:55	79.0	79.0	78.8	33	47.4	0	2	270	0.00	29.929 
16:00	79.2	79.2	78.8	31	45.9	1	4	90	0.00	29.918 
16:05	79.9	79.9	79.3	32	47.4	1	3	180	0.00	29.918 
16:10	80.7	80.7	79.8	33	48.9	1	3	270	0.00	29.918 
16:15	80.7	80.7	79.6	30	46.4	2	4	270	0.00	29.910 
16:20	80.7	80.7	79.7	31	47.2	0	2	270	0.00	29.910 
16:25	80.7	80.7	79.5	29	45.5	0	2	270	0.00	29.910 
16:30	80.7	80.7	79.7	31	47.2	0	2	270	0.00	29.902 
16:35	80.5	80.5	79.5	30	46.2	1	3	248	0.00	29.902 
16:40	79.9	79.9	79.2	31	46.5	1	3	248	0.00	29.902 
16:45	79.8	79.8	79.1	31	46.5	0	3	248	0.00	29.902 
16:50	79.6	79.6	79.0	31	46.3	1	2	248	0.00	29.902 
16:55	79.2	79.2	78.9	32	46.8	0	2	248	0.00	29.902 
17:00	79.0	79.0	78.8	33	47.4	0	2	248	0.00	29.903 
17:05	78.8	78.8	78.8	34	48.0	0	1	248	0.00	29.903 
17:10	78.5	78.5	78.7	35	48.5	0	1	248	0.00	29.903 
17:15	77.7	77.7	78.3	36	48.6	1	3	45	0.00	29.908 
17:20	77.2	77.2	78.1	35	47.4	1	3	315	0.00	29.908 
17:25	76.7	76.7	78.0	37	48.4	2	5	270	0.00	29.908 
17:30	75.8	75.8	77.8	42	51.1	2	5	270	0.00	29.916 
17:35	74.9	74.9	74.9	45	52.1	1	3	270	0.00	29.916 
17:40	74.0	74.0	74.0	49	53.6	1	3	270	0.00	29.916 
17:45	73.5	73.5	73.5	50	53.7	1	4	270	0.00	29.918 
17:50	73.3	73.3	73.3	51	54.1	1	3	270	0.00	29.918 
17:55	73.2	73.2	73.2	52	54.5	1	4	270	0.00	29.918 
18:00	73.0	73.0	73.0	51	53.8	2	4	315	0.00	29.920 
18:05	73.0	73.0	73.0	52	54.3	1	4	270	0.00	29.920 
18:10	73.0	73.0	73.0	53	54.8	1	3	270	0.00	29.920 
18:15	72.8	72.8	72.8	54	55.2	1	3	270	0.00	29.923 
18:20	72.5	72.5	72.5	55	55.4	2	6	270	0.00	29.923 
18:25	72.3	72.3	72.3	56	55.7	1	2	270	0.00	29.923 
18:30	72.1	72.1	72.1	57	56.0	1	4	270	0.00	29.929 
18:35	72.1	72.1	72.1	58	56.5	1	3	270	0.00	29.929 
18:40	72.0	72.0	72.0	59	56.9	0	2	270	0.00	29.929 
18:45	72.0	72.0	72.0	59	56.9	0	2	270	0.00	29.934 
18:50	72.0	72.0	72.0	61	57.8	1	2	270	0.00	29.934 
18:55	71.8	71.8	71.8	61	57.6	1	7	248	0.00	29.934 
19:00	71.6	71.6	71.6	61	57.4	0	3	248	0.00	29.937 
19:05	71.3	71.3	71.3	58	55.7	1	3	248	0.00	29.937 
19:10	71.1	71.1	71.1	55	54.1	1	2	248	0.00	29.937 
19:15	71.1	71.1	71.1	54	53.6	1	3	248	0.00	29.932 
19:20	70.9	70.9	70.9	54	53.4	0	2	248	0.00	29.932 
19:25	70.8	70.8	70.8	54	53.3	0	3	248	0.00	29.932 
19:30	70.6	70.6	70.6	51	51.6	1	4	248	0.00	29.920 
19:35	70.4	70.4	70.4	51	51.4	1	3	248	0.00	29.920 
19:40	70.4	70.4	70.4	52	51.9	0	2	248	0.00	29.920 
19:45	70.3	70.3	70.3	52	51.8	0	2	248	0.00	29.921 
19:50	70.1	70.1	70.1	52	51.6	0	2	248	0.00	29.921 
19:55	69.9	69.9	69.9	52	51.5	0	2	248	0.00	29.921 
20:00	69.8	69.8	69.8	52	51.4	1	3	248	0.00	29.917 
20:05	69.6	69.6	69.6	53	51.7	1	2	248	0.00	29.917 
20:10	69.4	69.4	69.4	53	51.5	1	3	248	0.00	29.917 
20:15	69.1	69.1	69.1	53	51.2	1	3	248	0.00	29.910 
20:20	68.9	68.9	68.9	53	51.1	1	3	248	0.00	29.910 
20:25	68.8	68.8	68.8	54	51.5	0	2	248	0.00	29.910 
20:30	68.6	68.6	68.6	54	51.3	1	2	248	0.00	29.910 
20:35	68.4	68.4	68.4	54	51.1	0	2	248	0.00	29.910 
20:40	68.3	68.3	68.3	55	51.5	0	2	248	0.00	29.910 
20:45	67.9	67.9	67.9	56	51.6	1	4	248	0.00	29.909 
20:50	67.6	67.6	67.6	58	52.3	0	2	248	0.00	29.909 
20:55	67.4	67.4	67.4	58	52.1	0	1	248	0.00	29.909 
21:00	67.1	67.1	67.1	59	52.3	0	1	248	0.00	29.907 
21:05	66.9	66.9	66.9	60	52.6	0	1	248	0.00	29.907 
21:10	66.8	66.8	66.8	60	52.5	0	3	248	0.00	29.907 
21:15	66.6	66.6	66.6	61	52.7	0	2	248	0.00	29.904 
21:20	66.4	66.4	66.4	62	53.0	0	1	248	0.00	29.904 
21:25	66.4	66.4	66.4	63	53.4	0	1	248	0.00	29.904 
21:30	66.1	66.1	66.1	63	53.1	0	1	248	0.00	29.903 
21:35	66.1	66.1	66.1	64	53.6	0	0	---	0.00	29.903 
21:40	66.0	66.0	66.0	65	53.9	0	1	248	0.00	29.903 
21:45	65.8	65.8	65.8	65	53.7	0	0	---	0.00	29.902 
21:50	65.6	65.6	65.6	65	53.5	0	0	---	0.00	29.902 
21:55	65.5	65.5	65.5	67	54.2	0	0	---	0.00	29.902 
22:00	65.3	65.3	65.3	69	54.9	0	0	---	0.00	29.900 
22:05	65.2	65.2	65.2	70	55.2	0	0	---	0.00	29.900 
22:10	65.0	65.0	65.0	70	55.0	0	0	---	0.00	29.900 
22:15	64.8	64.8	64.8	71	55.2	0	0	---	0.00	29.897 
22:20	64.7	64.7	64.7	72	55.5	0	0	---	0.00	29.897 
22:25	64.5	64.5	64.5	73	55.6	0	0	---	0.00	29.897 
22:30	64.3	64.3	64.3	73	55.5	0	0	---	0.00	29.910 
22:35	64.2	64.2	64.2	73	55.4	0	0	---	0.00	29.910 
22:40	64.0	64.0	64.0	75	55.9	0	0	---	0.00	29.910 
22:45	63.7	63.7	63.7	76	56.0	0	0	---	0.00	29.911 
22:50	63.7	63.7	63.7	78	56.7	0	0	---	0.00	29.911 
22:55	63.4	63.4	63.4	79	56.8	0	0	---	0.00	29.911 
23:00	63.2	63.2	63.2	81	57.3	0	1	248	0.00	29.909 
23:05	63.1	63.1	63.1	81	57.2	0	1	248	0.01	29.909 
23:10	62.9	62.9	62.9	82	57.3	0	1	248	0.00	29.909 
23:15	62.7	62.7	62.7	82	57.1	0	0	---	0.00	29.900 
23:20	62.7	62.7	62.7	83	57.5	0	0	---	0.00	29.900 
23:25	62.6	62.6	62.6	83	57.4	0	1	248	0.00	29.900 
23:30	62.6	62.6	62.6	83	57.4	0	3	248	0.00	29.881 
23:35	62.6	62.6	62.6	83	57.4	0	1	248	0.00	29.881 
23:40	62.6	62.6	62.6	84	57.7	0	1	248	0.01	29.881 
23:45	62.4	62.4	62.4	85	57.8	0	2	248	0.03	29.893 
23:50	62.3	62.3	62.3	86	58.1	0	0	---	0.00	29.893 
23:55	62.0	62.0	62.0	87	58.1	0	0	---	0.00	29.893 

CoCoRaHS
IN-AL-39
A2 Web Hosting
Creative Commons License
GoDaddy
search engine by freefind advanced

loaded 2018-11-17 12:59:16 • last modified 2010-11-18 10:43:29
Privacy PolicyDisclaimer
• wx.awcolley.com is powered by PmWiki v.2002016 •
• all content (unless otherwise noted) © 2018 A W Colley